Time;durP1;ratioP1;P1;durP2;ratioP2;P2;SDS_P1;SDS_P2;PMS_P1;PMS_P2;Temp;Humidity;BMP_temperature;BMP_pressure;BME280_temperature;BME280_humidity;BME280_pressure;Samples;Min_cycle;Max_cycle;Signal;HPM_P1;HPM_P2
2023/05/29 00:01:52;;;;;;;6.13;3.88;;;17.40;90.10;;;;;;4968541;28;20494;-43
2023/05/29 00:04:18;;;;;;;6.00;3.33;;;17.30;90.20;;;;;;4968094;28;20483;-53
2023/05/29 00:06:43;;;;;;;11.65;3.80;;;17.20;90.40;;;;;;4969057;28;20026;-50
2023/05/29 00:09:12;;;;;;;5.10;2.95;;;17.10;90.60;;;;;;4971431;28;20026;-42
2023/05/29 00:11:37;;;;;;;6.85;3.17;;;17.10;90.70;;;;;;4971560;28;20027;-51
2023/05/29 00:14:02;;;;;;;5.68;3.25;;;17.00;90.90;;;;;;4972634;28;20041;-50
2023/05/29 00:16:29;;;;;;;4.72;3.00;;;16.90;91.10;;;;;;4976038;28;20062;-54
2023/05/29 00:18:54;;;;;;;5.05;3.25;;;16.90;91.30;;;;;;4976285;28;20062;-48
2023/05/29 00:21:20;;;;;;;6.15;3.08;;;16.90;91.30;;;;;;4975847;28;20542;-48
2023/05/29 00:23:47;;;;;;;5.90;4.03;;;16.90;91.50;;;;;;4975872;28;20027;-48
2023/05/29 00:26:13;;;;;;;8.35;3.70;;;16.80;91.60;;;;;;4975910;28;20027;-49
2023/05/29 00:28:39;;;;;;;5.97;3.50;;;16.80;91.70;;;;;;4975831;28;20034;-46
2023/05/29 00:31:05;;;;;;;5.47;3.40;;;16.70;91.80;;;;;;4975643;28;20031;-53
2023/05/29 00:33:30;;;;;;;13.48;3.83;;;16.70;91.90;;;;;;4975408;28;20023;-52
2023/05/29 00:35:56;;;;;;;16.38;3.63;;;16.70;92.00;;;;;;4975631;28;20023;-50
2023/05/29 00:38:21;;;;;;;19.50;4.18;;;16.60;92.20;;;;;;4974236;28;20031;-52
2023/05/29 00:40:47;;;;;;;16.83;3.85;;;16.60;92.40;;;;;;4975284;28;20105;-53
2023/05/29 00:43:12;;;;;;;12.90;4.53;;;16.60;92.30;;;;;;4975324;28;20479;-49
2023/05/29 00:45:38;;;;;;;6.93;3.35;;;16.60;92.40;;;;;;4975666;28;20061;-46
2023/05/29 00:48:05;;;;;;;7.95;3.20;;;16.60;92.60;;;;;;4975648;28;20057;-50
2023/05/29 00:50:31;;;;;;;4.65;3.15;;;16.50;92.70;;;;;;4975620;28;20079;-51
2023/05/29 00:52:58;;;;;;;7.97;3.25;;;16.50;92.80;;;;;;4975250;28;20582;-48
2023/05/29 00:55:24;;;;;;;8.63;3.58;;;16.40;92.90;;;;;;4974089;28;20035;-52
2023/05/29 00:57:50;;;;;;;12.40;3.55;;;16.40;93.10;;;;;;4975853;28;20496;-51
2023/05/29 01:00:18;;;;;;;10.07;3.90;;;16.30;93.30;;;;;;4975204;28;20047;-50
2023/05/29 01:02:45;;;;;;;6.97;3.40;;;16.30;93.50;;;;;;4973744;28;20103;-48
2023/05/29 01:05:12;;;;;;;9.70;3.85;;;16.30;93.60;;;;;;4974896;28;20383;-49
2023/05/29 01:07:38;;;;;;;10.73;3.60;;;16.20;93.80;;;;;;4975231;28;20030;-49
2023/05/29 01:10:08;;;;;;;25.30;4.05;;;16.10;93.90;;;;;;4975183;28;20019;-48
2023/05/29 01:13:27;;;;;;;10.05;3.88;;;16.10;94.20;;;;;;4975014;28;20395;-50
2023/05/29 01:16:09;;;;;;;24.30;4.00;;;16.00;94.40;;;;;;4953433;28;20062;-48
2023/05/29 01:18:46;;;;;;;7.97;3.63;;;16.00;94.50;;;;;;4973004;28;20046;-47
2023/05/29 01:21:37;;;;;;;14.48;4.22;;;15.90;94.70;;;;;;4974876;28;20019;-49
2023/05/29 01:24:03;;;;;;;12.18;4.97;;;15.80;94.90;;;;;;4974645;28;20380;-51
2023/05/29 01:26:42;;;;;;;5.78;3.35;;;15.80;95.00;;;;;;4974584;28;20371;-49
2023/05/29 01:29:10;;;;;;;6.32;3.20;;;15.80;95.00;;;;;;4974964;28;20517;-49
2023/05/29 01:31:38;;;;;;;4.70;3.70;;;15.80;95.00;;;;;;4974775;28;20081;-46
2023/05/29 01:34:04;;;;;;;6.45;3.20;;;15.80;95.00;;;;;;4974817;28;20027;-52
2023/05/29 01:36:30;;;;;;;6.05;3.17;;;15.80;95.00;;;;;;4974713;28;20101;-50
2023/05/29 01:38:57;;;;;;;3.92;3.38;;;15.90;94.90;;;;;;4974643;28;20039;-49
2023/05/29 01:41:24;;;;;;;8.65;3.15;;;15.90;94.90;;;;;;4974602;28;20284;-46
2023/05/29 01:43:50;;;;;;;7.53;3.95;;;15.80;95.00;;;;;;4974357;28;20027;-50
2023/05/29 01:46:16;;;;;;;5.35;3.28;;;15.90;95.00;;;;;;4989615;28;20110;-49
2023/05/29 01:48:43;;;;;;;7.03;3.72;;;15.90;95.10;;;;;;4974957;28;20030;-49
2023/05/29 01:51:10;;;;;;;4.88;3.13;;;15.90;95.10;;;;;;4974150;28;20463;-52
2023/05/29 01:53:36;;;;;;;4.93;3.60;;;16.00;95.20;;;;;;4974128;28;20022;-46
2023/05/29 01:56:04;;;;;;;4.75;3.40;;;15.90;95.30;;;;;;4974384;28;20022;-50
2023/05/29 01:58:30;;;;;;;7.68;3.92;;;15.80;95.40;;;;;;4974759;28;20054;-48
2023/05/29 02:00:56;;;;;;;10.13;3.63;;;15.80;95.50;;;;;;4974249;28;20035;-52
2023/05/29 02:03:22;;;;;;;9.23;3.63;;;15.70;95.60;;;;;;4974504;28;20387;-49
2023/05/29 02:05:48;;;;;;;8.07;4.07;;;15.70;95.70;;;;;;4974083;28;20046;-47
2023/05/29 02:08:14;;;;;;;7.65;3.72;;;15.70;95.90;;;;;;4989330;28;20045;-48
2023/05/29 02:10:39;;;;;;;6.47;3.92;;;15.70;95.90;;;;;;4973952;28;20348;-45
2023/05/29 02:13:05;;;;;;;10.25;3.65;;;15.70;96.00;;;;;;4974207;28;20027;-47
2023/05/29 02:15:30;;;;;;;6.60;3.63;;;15.60;96.20;;;;;;4974447;28;20031;-49
2023/05/29 02:17:57;;;;;;;5.30;3.45;;;15.50;96.40;;;;;;4974132;28;20105;-52
2023/05/29 02:20:23;;;;;;;9.10;3.65;;;15.50;96.50;;;;;;4973718;28;20491;-53
2023/05/29 02:22:49;;;;;;;6.55;3.80;;;15.50;96.60;;;;;;4988509;28;20034;-49
2023/05/29 02:25:14;;;;;;;9.52;3.72;;;15.50;96.70;;;;;;4973717;28;20030;-48
2023/05/29 02:27:40;;;;;;;3.55;3.20;;;15.50;96.90;;;;;;4973573;28;20037;-46
2023/05/29 02:30:06;;;;;;;7.78;3.75;;;15.40;97.00;;;;;;4972176;28;20027;-48
2023/05/29 02:32:32;;;;;;;6.90;3.50;;;15.40;97.10;;;;;;4973778;28;20027;-48
2023/05/29 02:34:57;;;;;;;6.30;3.85;;;15.40;97.30;;;;;;4973888;28;20501;-49
2023/05/29 02:37:25;;;;;;;4.80;3.60;;;15.30;97.50;;;;;;4988082;28;20038;-46
2023/05/29 02:39:51;;;;;;;6.07;4.28;;;15.30;97.60;;;;;;4975935;28;20019;-54
2023/05/29 02:42:17;;;;;;;8.23;3.45;;;15.30;97.80;;;;;;4976560;28;20033;-47
2023/05/29 02:44:42;;;;;;;11.85;4.15;;;15.20;98.00;;;;;;4974127;28;20023;-48
2023/05/29 02:47:08;;;;;;;6.68;3.92;;;15.10;98.30;;;;;;4973524;28;20041;-46
2023/05/29 02:49:33;;;;;;;7.47;4.05;;;15.10;98.60;;;;;;4973226;28;20110;-46
2023/05/29 02:51:59;;;;;;;6.18;3.67;;;15.00;98.90;;;;;;4988355;28;20076;-46
2023/05/29 02:54:25;;;;;;;6.22;3.60;;;14.90;99.20;;;;;;4972814;28;20033;-47
2023/05/29 02:56:51;;;;;;;7.30;4.00;;;14.90;99.40;;;;;;4973258;28;20510;-46
2023/05/29 02:59:17;;;;;;;4.95;3.53;;;14.80;99.60;;;;;;4972779;28;20027;-45
2023/05/29 03:01:42;;;;;;;5.15;3.40;;;14.80;99.80;;;;;;4973202;28;20031;-46
2023/05/29 03:04:09;;;;;;;8.18;3.95;;;14.80;99.90;;;;;;4973233;28;20030;-50
2023/05/29 03:06:36;;;;;;;10.38;4.00;;;14.70;99.90;;;;;;4973079;28;20026;-49
2023/05/29 03:09:02;;;;;;;6.82;3.88;;;14.70;99.90;;;;;;4972938;28;20030;-49
2023/05/29 03:11:28;;;;;;;7.20;4.20;;;14.70;99.90;;;;;;4972733;28;20023;-48
2023/05/29 03:13:54;;;;;;;6.32;4.00;;;14.70;99.90;;;;;;4972503;28;20307;-45
2023/05/29 03:16:21;;;;;;;7.03;3.83;;;14.60;99.90;;;;;;4972934;28;20035;-46
2023/05/29 03:18:46;;;;;;;6.95;3.40;;;14.60;99.90;;;;;;4972600;28;20093;-50
2023/05/29 03:21:12;;;;;;;11.00;3.95;;;14.50;99.90;;;;;;4987168;28;20023;-49
2023/05/29 03:23:37;;;;;;;7.30;4.00;;;14.50;99.90;;;;;;4972431;28;20059;-50
2023/05/29 03:26:05;;;;;;;7.32;3.85;;;14.50;99.90;;;;;;4972861;28;20077;-51
2023/05/29 03:28:31;;;;;;;5.53;3.58;;;14.50;99.90;;;;;;4971781;28;20451;-48
2023/05/29 03:30:56;;;;;;;6.60;3.60;;;14.40;99.90;;;;;;4972804;28;20027;-49
2023/05/29 03:33:22;;;;;;;3.95;3.30;;;14.50;99.90;;;;;;4972607;28;20035;-50
2023/05/29 03:35:47;;;;;;;6.00;3.75;;;14.50;99.90;;;;;;4972549;28;20037;-50
2023/05/29 03:38:13;;;;;;;10.45;3.88;;;14.50;99.90;;;;;;4987332;28;20034;-48
2023/05/29 03:40:38;;;;;;;8.07;4.03;;;14.50;99.90;;;;;;4972579;28;20015;-46
2023/05/29 03:43:04;;;;;;;10.23;4.18;;;14.50;99.90;;;;;;4972451;28;20034;-49
2023/05/29 03:45:29;;;;;;;7.38;3.58;;;14.40;99.90;;;;;;4972821;28;20034;-49
2023/05/29 03:47:55;;;;;;;6.25;3.40;;;14.30;99.90;;;;;;4972607;28;20035;-47
2023/05/29 03:50:21;;;;;;;11.57;4.05;;;14.30;99.90;;;;;;4975522;28;20403;-49
2023/05/29 03:52:46;;;;;;;14.88;5.20;;;14.40;99.90;;;;;;4976254;28;20031;-46
2023/05/29 03:55:12;;;;;;;16.70;4.43;;;14.30;99.90;;;;;;4991097;28;20046;-51
2023/05/29 03:57:42;;;;;;;20.25;4.47;;;14.30;99.90;;;;;;4976432;28;20061;-46
2023/05/29 04:00:12;;;;;;;14.43;3.97;;;14.40;99.90;;;;;;4975856;28;20019;-51
2023/05/29 04:02:38;;;;;;;16.98;4.05;;;14.40;99.90;;;;;;4976296;28;20399;-48
2023/05/29 04:05:06;;;;;;;9.15;4.05;;;14.30;99.90;;;;;;4976437;28;20034;-47
2023/05/29 04:07:32;;;;;;;11.82;4.28;;;14.40;99.90;;;;;;4976154;28;20019;-51
2023/05/29 04:09:57;;;;;;;8.48;4.78;;;14.80;99.90;;;;;;4975831;28;20030;-48
2023/05/29 04:12:23;;;;;;;14.75;5.97;;;14.40;99.90;;;;;;4976326;28;20025;-51
2023/05/29 04:14:48;;;;;;;21.92;5.30;;;14.50;99.90;;;;;;4976442;28;20063;-51
2023/05/29 04:17:14;;;;;;;24.80;4.97;;;14.50;99.90;;;;;;4976007;28;20062;-49
2023/05/29 04:19:39;;;;;;;22.70;4.82;;;14.50;99.90;;;;;;4976284;28;20046;-47
2023/05/29 04:22:05;;;;;;;9.75;4.00;;;14.60;99.90;;;;;;4976066;28;20046;-47
2023/05/29 04:24:31;;;;;;;12.18;4.22;;;14.60;99.90;;;;;;4976094;28;20038;-46
2023/05/29 04:27:00;;;;;;;6.40;3.53;;;14.70;99.90;;;;;;4991014;28;20038;-49
2023/05/29 04:29:26;;;;;;;10.13;3.38;;;14.80;99.90;;;;;;4975695;28;20049;-51
2023/05/29 04:31:51;;;;;;;7.78;3.50;;;14.90;99.90;;;;;;4975944;28;20034;-49
2023/05/29 04:34:17;;;;;;;11.85;4.43;;;14.90;99.90;;;;;;4975503;28;20121;-52
2023/05/29 04:36:44;;;;;;;14.95;5.03;;;15.00;99.90;;;;;;4991013;28;20035;-48
2023/05/29 04:39:10;;;;;;;11.00;4.05;;;15.20;99.90;;;;;;4991020;28;20023;-46
2023/05/29 04:41:35;;;;;;;11.35;4.35;;;15.30;99.90;;;;;;4974021;28;20463;-49
2023/05/29 04:44:01;;;;;;;9.20;3.95;;;15.40;99.90;;;;;;4990083;28;20038;-46
2023/05/29 04:46:26;;;;;;;10.63;4.55;;;15.60;99.90;;;;;;4990809;28;20026;-47
2023/05/29 04:48:53;;;;;;;7.18;3.88;;;15.70;99.90;;;;;;4975863;28;20454;-46
2023/05/29 04:51:21;;;;;;;9.80;4.40;;;16.00;99.90;;;;;;4976122;28;20038;-49
2023/05/29 04:53:47;;;;;;;11.38;5.07;;;16.40;99.90;;;;;;4976200;28;20027;-50
2023/05/29 04:56:14;;;;;;;7.00;3.38;;;16.90;99.90;;;;;;4975752;28;20033;-50
2023/05/29 04:58:41;;;;;;;7.00;3.65;;;17.20;99.40;;;;;;4975451;28;20031;-51
2023/05/29 05:01:08;;;;;;;10.85;5.03;;;17.50;98.70;;;;;;4973885;28;20031;-48
2023/05/29 05:03:34;;;;;;;10.35;3.97;;;17.90;98.10;;;;;;4974608;28;20022;-49
2023/05/29 05:06:04;;;;;;;7.88;3.85;;;18.20;97.50;;;;;;4974125;28;20030;-50
2023/05/29 05:08:30;;;;;;;7.45;3.60;;;18.60;97.20;;;;;;4975156;28;20510;-52
2023/05/29 05:10:56;;;;;;;6.78;3.60;;;19.00;96.00;;;;;;4974915;28;20027;-50
2023/05/29 05:13:22;;;;;;;6.85;3.70;;;19.30;95.80;;;;;;4974949;28;20062;-48
2023/05/29 05:15:47;;;;;;;9.10;3.58;;;19.70;94.80;;;;;;4974660;28;20038;-49
2023/05/29 05:18:13;;;;;;;5.60;3.63;;;19.60;94.90;;;;;;4974884;28;20406;-47
2023/05/29 05:20:38;;;;;;;5.07;3.35;;;19.70;94.90;;;;;;4974618;28;20023;-49
2023/05/29 05:23:04;;;;;;;8.38;3.75;;;20.00;94.60;;;;;;4974510;28;20249;-52
2023/05/29 05:25:29;;;;;;;7.68;3.45;;;20.10;94.00;;;;;;4989895;28;20121;-48
2023/05/29 05:27:56;;;;;;;10.98;3.63;;;20.10;94.10;;;;;;4974641;28;20074;-50
2023/05/29 05:30:21;;;;;;;8.85;3.42;;;20.00;93.90;;;;;;4974191;28;20030;-50
2023/05/29 05:32:47;;;;;;;4.95;3.40;;;20.00;94.10;;;;;;4974154;28;20435;-49
2023/05/29 05:35:13;;;;;;;9.20;3.42;;;19.60;94.80;;;;;;4974519;28;20059;-50
2023/05/29 05:37:38;;;;;;;7.63;4.15;;;20.10;94.50;;;;;;4973610;28;20023;-49
2023/05/29 05:40:06;;;;;;;6.78;3.65;;;20.50;93.70;;;;;;4974098;28;20276;-50
2023/05/29 05:42:32;;;;;;;9.05;3.42;;;20.60;93.20;;;;;;4974264;28;20022;-48
2023/05/29 05:44:58;;;;;;;13.23;3.35;;;21.00;93.00;;;;;;4974538;28;20030;-52
2023/05/29 05:47:23;;;;;;;7.97;3.90;;;21.10;92.80;;;;;;4974229;28;20023;-46
2023/05/29 05:49:51;;;;;;;5.63;3.35;;;21.30;92.30;;;;;;4974110;28;20034;-46
2023/05/29 05:52:17;;;;;;;7.30;3.67;;;21.10;92.30;;;;;;4973887;28;20026;-49
2023/05/29 05:54:43;;;;;;;5.78;3.50;;;20.80;92.90;;;;;;4974464;28;20026;-50
2023/05/29 05:57:09;;;;;;;7.93;3.85;;;20.80;92.80;;;;;;4974218;28;20042;-50
2023/05/29 05:59:34;;;;;;;7.63;3.83;;;21.30;92.50;;;;;;4989022;28;20034;-54
2023/05/29 06:02:00;;;;;;;5.75;3.55;;;21.70;91.90;;;;;;4974827;28;20684;-48
2023/05/29 06:04:25;;;;;;;5.93;3.28;;;21.90;91.40;;;;;;4973045;28;20484;-45
2023/05/29 06:06:51;;;;;;;6.20;3.63;;;22.30;90.70;;;;;;4974092;28;20070;-51
2023/05/29 06:09:17;;;;;;;6.93;3.22;;;22.20;90.90;;;;;;4999141;22;20030;-54
2023/05/29 06:11:43;;;;;;;7.43;3.42;;;23.10;90.80;;;;;;4968034;28;20067;-51
2023/05/29 06:14:08;;;;;;;10.10;4.05;;;21.80;91.00;;;;;;4970622;28;20050;-51
2023/05/29 06:16:34;;;;;;;6.70;3.55;;;21.50;91.00;;;;;;4954514;29;20063;-52
2023/05/29 06:19:00;;;;;;;10.82;4.25;;;21.90;91.10;;;;;;4954424;29;20035;-54
2023/05/29 06:21:26;;;;;;;5.95;3.83;;;21.70;90.40;;;;;;4968836;28;20027;-51
2023/05/29 06:23:52;;;;;;;8.43;3.40;;;21.50;90.90;;;;;;4954331;29;20106;-52
2023/05/29 06:26:17;;;;;;;5.10;2.83;;;21.80;90.90;;;;;;4954233;29;20023;-52
2023/05/29 06:28:43;;;;;;;4.88;3.42;;;21.50;91.00;;;;;;4954354;29;20045;-53
2023/05/29 06:31:08;;;;;;;10.43;3.75;;;21.80;90.70;;;;;;4952534;28;20032;-51
2023/05/29 06:33:35;;;;;;;8.57;3.38;;;22.20;90.50;;;;;;4953956;28;20027;-55
2023/05/29 06:36:00;;;;;;;8.57;3.38;;;22.40;89.50;;;;;;4954156;28;20026;-52
2023/05/29 06:38:26;;;;;;;10.32;3.35;;;22.50;90.10;;;;;;4952717;29;20506;-54
2023/05/29 06:40:51;;;;;;;7.35;3.00;;;22.30;90.10;;;;;;4953813;28;20118;-55
2023/05/29 06:43:17;;;;;;;8.65;3.28;;;22.70;88.60;;;;;;4952417;28;20061;-55
2023/05/29 06:45:42;;;;;;;7.90;3.22;;;22.50;88.70;;;;;;4952966;29;20616;-51
2023/05/29 06:48:08;;;;;;;6.30;3.78;;;22.10;88.60;;;;;;4952637;29;20435;-54
2023/05/29 06:50:33;;;;;;;5.80;3.40;;;22.00;89.10;;;;;;4953918;28;20034;-55
2023/05/29 06:52:59;;;;;;;8.75;3.30;;;22.20;89.50;;;;;;4953662;29;20499;-56
2023/05/29 06:55:24;;;;;;;5.40;3.05;;;22.40;88.30;;;;;;4953778;29;20035;-56
2023/05/29 06:57:50;;;;;;;8.00;4.93;;;22.70;87.80;;;;;;4953651;29;20023;-50
2023/05/29 07:00:16;;;;;;;10.38;3.53;;;23.60;87.30;;;;;;4953213;28;20514;-54
2023/05/29 07:02:42;;;;;;;4.18;2.72;;;23.80;86.10;;;;;;4953586;29;20051;-52
2023/05/29 07:05:08;;;;;;;5.55;3.05;;;24.20;84.30;;;;;;4952553;29;20069;-54
2023/05/29 07:07:33;;;;;;;8.60;3.05;;;24.80;82.50;;;;;;4953777;29;20039;-56
2023/05/29 07:09:59;;;;;;;7.97;3.22;;;24.80;81.80;;;;;;4953095;28;20050;-54
2023/05/29 07:12:24;;;;;;;4.53;3.28;;;24.80;81.70;;;;;;4953291;29;20499;-53
2023/05/29 07:14:50;;;;;;;7.13;4.15;;;25.20;81.00;;;;;;4953598;29;20027;-53
2023/05/29 07:17:15;;;;;;;5.03;2.90;;;25.50;80.60;;;;;;4953544;29;20034;-52
2023/05/29 07:19:41;;;;;;;6.40;2.97;;;25.50;80.80;;;;;;4952148;28;20070;-51
2023/05/29 07:22:07;;;;;;;7.15;2.85;;;26.00;78.90;;;;;;4952971;29;20035;-51
2023/05/29 07:24:33;;;;;;;6.97;3.38;;;26.10;79.50;;;;;;4952993;28;20102;-50
2023/05/29 07:26:58;;;;;;;4.55;2.60;;;25.80;78.30;;;;;;4953428;29;20054;-51
2023/05/29 07:29:24;;;;;;;4.70;3.38;;;26.10;78.90;;;;;;4952921;28;20046;-51
2023/05/29 07:31:51;;;;;;;5.63;3.53;;;26.10;76.70;;;;;;4953363;29;20503;-53
2023/05/29 07:34:16;;;;;;;5.65;3.17;;;26.20;77.90;;;;;;4952720;29;20034;-50
2023/05/29 07:37:08;;;;;;;4.88;2.95;;;26.20;77.60;;;;;;4953459;29;20019;-53
2023/05/29 07:39:35;;;;;;;4.40;2.67;;;25.70;77.90;;;;;;4949959;28;20459;-50
2023/05/29 07:42:01;;;;;;;5.40;3.08;;;25.40;77.40;;;;;;4953318;29;20031;-54
2023/05/29 07:44:27;;;;;;;4.45;3.05;;;25.50;79.20;;;;;;4952826;29;20050;-55
2023/05/29 07:46:53;;;;;;;5.65;3.08;;;25.70;77.00;;;;;;4953119;29;20035;-50
2023/05/29 07:49:20;;;;;;;5.70;2.65;;;25.50;78.10;;;;;;4952722;28;20042;-52
2023/05/29 07:51:45;;;;;;;3.53;2.58;;;25.20;78.50;;;;;;4953041;28;20042;-52
2023/05/29 07:54:11;;;;;;;3.40;2.70;;;25.70;78.00;;;;;;4952918;29;20488;-53
2023/05/29 07:56:38;;;;;;;3.60;2.83;;;26.00;76.30;;;;;;4952497;29;20031;-54
2023/05/29 07:59:04;;;;;;;9.82;3.08;;;25.70;77.00;;;;;;4953021;29;20400;-53
2023/05/29 08:01:29;;;;;;;6.70;3.00;;;26.00;76.80;;;;;;4952575;28;20070;-54
2023/05/29 08:03:55;;;;;;;6.25;3.15;;;25.90;77.30;;;;;;4952718;29;20387;-56
2023/05/29 08:06:21;;;;;;;5.65;3.10;;;26.30;76.50;;;;;;4952501;29;20028;-56
2023/05/29 08:08:47;;;;;;;10.48;2.80;;;26.10;77.00;;;;;;4953527;29;20201;-51
2023/05/29 08:11:12;;;;;;;6.25;2.97;;;26.00;77.40;;;;;;4951152;28;20032;-51
2023/05/29 08:13:38;;;;;;;4.35;2.40;;;26.10;76.50;;;;;;4952735;29;20042;-54
2023/05/29 08:16:04;;;;;;;3.33;2.92;;;26.00;78.40;;;;;;4952951;29;20522;-53
2023/05/29 08:18:31;;;;;;;4.60;2.90;;;24.90;78.50;;;;;;4953396;29;20036;-56
2023/05/29 08:20:56;;;;;;;6.22;3.30;;;24.90;80.00;;;;;;4952643;28;20050;-53
2023/05/29 08:23:22;;;;;;;2.97;2.78;;;25.40;79.90;;;;;;4951624;29;20491;-56
2023/05/29 08:25:48;;;;;;;4.18;3.00;;;25.50;77.80;;;;;;4953109;28;20070;-54
2023/05/29 08:28:14;;;;;;;6.68;4.80;;;25.20;78.40;;;;;;4958201;28;20108;-54
2023/05/29 08:30:40;;;;;;;7.95;3.22;;;24.70;80.10;;;;;;4977774;28;20031;-54
2023/05/29 08:33:06;;;;;;;8.32;3.55;;;24.60;81.80;;;;;;4993250;28;20037;-53
2023/05/29 08:35:32;;;;;;;5.47;2.92;;;24.40;80.20;;;;;;4974168;28;20026;-51
2023/05/29 08:37:58;;;;;;;5.55;3.63;;;24.20;80.90;;;;;;4975593;28;20027;-54
2023/05/29 08:40:24;;;;;;;6.20;2.90;;;23.70;82.80;;;;;;4963066;28;20047;-52
2023/05/29 08:43:15;;;;;;;5.15;3.00;;;23.60;82.70;;;;;;4971613;28;20403;-51
2023/05/29 08:45:45;;;;;;;5.60;3.22;;;23.70;83.90;;;;;;4975619;28;20027;-52
2023/05/29 08:48:11;;;;;;;6.72;3.08;;;23.60;82.60;;;;;;4975527;28;20031;-55
2023/05/29 08:50:48;;;;;;;5.10;3.22;;;23.50;83.10;;;;;;4972006;28;20079;-55
2023/05/29 08:53:15;;;;;;;7.63;3.75;;;23.70;83.70;;;;;;4964943;28;20033;-51
2023/05/29 08:55:40;;;;;;;5.60;3.08;;;23.90;82.70;;;;;;4974201;28;20049;-52
2023/05/29 08:58:06;;;;;;;10.63;3.10;;;24.10;81.90;;;;;;4959790;28;20020;-58
2023/05/29 09:00:32;;;;;;;6.70;3.20;;;24.40;82.50;;;;;;4964987;28;20025;-58
2023/05/29 09:02:59;;;;;;;7.90;3.58;;;24.60;81.50;;;;;;4974586;28;20027;-58
2023/05/29 09:05:27;;;;;;;7.85;3.47;;;24.40;81.30;;;;;;4975098;28;20030;-53
2023/05/29 09:07:56;;;;;;;5.28;2.80;;;24.40;82.70;;;;;;4969500;28;20020;-54
2023/05/29 09:10:22;;;;;;;4.60;2.80;;;24.50;79.90;;;;;;4966032;28;20031;-54
2023/05/29 09:12:51;;;;;;;10.10;3.00;;;24.30;81.00;;;;;;4973507;28;20081;-55
2023/05/29 09:15:23;;;;;;;6.95;3.65;;;24.20;80.30;;;;;;4972630;28;20078;-53
2023/05/29 09:18:00;;;;;;;5.65;3.40;;;24.00;81.70;;;;;;4955705;29;20050;-54
2023/05/29 09:20:27;;;;;;;4.68;3.40;;;24.00;81.80;;;;;;4956438;29;20392;-55
2023/05/29 09:23:00;;;;;;;6.70;3.72;;;23.60;81.40;;;;;;4955334;28;20023;-51
2023/05/29 09:25:27;;;;;;;4.97;3.35;;;23.60;82.40;;;;;;4955486;29;20507;-54
2023/05/29 09:27:55;;;;;;;11.40;3.55;;;23.80;82.20;;;;;;4966608;28;20034;-56
2023/05/29 09:30:42;;;;;;;4.82;3.20;;;23.60;81.30;;;;;;4973788;28;20387;-54
2023/05/29 09:33:10;;;;;;;6.07;2.92;;;23.80;82.50;;;;;;4955022;29;20037;-54
2023/05/29 09:35:36;;;;;;;3.38;2.78;;;23.70;80.80;;;;;;4955427;28;20102;-54
2023/05/29 09:38:02;;;;;;;9.68;3.08;;;23.80;81.60;;;;;;4974145;28;20043;-53
2023/05/29 09:40:32;;;;;;;10.45;2.88;;;23.70;81.10;;;;;;4974242;28;20061;-53
2023/05/29 09:43:16;;;;;;;9.27;3.42;;;23.70;81.50;;;;;;4974701;28;20031;-52
2023/05/29 09:45:46;;;;;;;7.03;3.13;;;23.80;82.90;;;;;;4972829;28;20027;-52
2023/05/29 09:48:14;;;;;;;7.20;3.13;;;23.80;79.70;;;;;;4973613;28;20554;-48
2023/05/29 09:50:39;;;;;;;6.68;2.90;;;23.80;80.00;;;;;;4973709;28;20031;-52
2023/05/29 09:53:16;;;;;;;4.03;2.85;;;23.70;80.10;;;;;;4973974;28;20049;-56
2023/05/29 09:55:42;;;;;;;4.00;2.78;;;23.80;80.90;;;;;;4974251;28;20398;-55
2023/05/29 09:58:08;;;;;;;9.23;3.25;;;23.70;79.40;;;;;;4973889;28;20026;-57
2023/05/29 10:00:34;;;;;;;4.90;2.90;;;23.60;81.10;;;;;;4973283;28;20022;-56
2023/05/29 10:02:59;;;;;;;4.90;3.50;;;23.50;80.80;;;;;;4972441;28;20027;-56
2023/05/29 10:05:25;;;;;;;5.80;3.10;;;23.50;80.30;;;;;;4974171;28;20089;-56
2023/05/29 10:07:54;;;;;;;5.28;3.13;;;23.60;81.10;;;;;;4973703;28;20062;-55
2023/05/29 10:10:20;;;;;;;9.55;3.10;;;23.60;80.70;;;;;;4973456;28;20069;-55
2023/05/29 10:12:48;;;;;;;7.00;2.97;;;23.70;81.30;;;;;;4973748;28;20031;-55
2023/05/29 10:15:16;;;;;;;8.60;3.15;;;23.80;81.50;;;;;;4973856;28;20031;-52
2023/05/29 10:18:04;;;;;;;3.83;2.85;;;23.80;81.90;;;;;;4973484;28;20019;-57
2023/05/29 10:20:31;;;;;;;6.82;4.20;;;23.80;81.90;;;;;;4972308;28;20105;-54
2023/05/29 10:23:00;;;;;;;9.23;4.78;;;23.90;82.30;;;;;;4973409;28;20027;-56
2023/05/29 10:25:29;;;;;;;54.13;34.08;;;24.00;81.80;;;;;;4965919;28;20034;-53
2023/05/29 10:27:56;;;;;;;4.78;3.15;;;24.00;80.20;;;;;;4978136;28;20030;-56
2023/05/29 10:30:43;;;;;;;6.82;3.15;;;24.10;80.40;;;;;;4970869;28;20045;-52
2023/05/29 10:33:42;;;;;;;6.53;2.85;;;24.00;80.90;;;;;;4972617;28;20635;-57
2023/05/29 10:36:14;;;;;;;3.15;2.83;;;24.00;80.00;;;;;;4972329;28;20042;-54
2023/05/29 10:38:45;;;;;;;5.95;3.15;;;23.80;80.40;;;;;;4973675;28;20034;-54
2023/05/29 10:41:26;;;;;;;5.50;3.05;;;24.00;79.60;;;;;;4971968;28;20034;-54
2023/05/29 10:43:57;;;;;;;6.07;3.13;;;23.80;78.90;;;;;;4973134;28;20030;-55
2023/05/29 10:46:48;;;;;;;11.98;3.47;;;23.90;80.00;;;;;;4973421;28;20189;-54
2023/05/29 10:49:21;;;;;;;6.38;3.13;;;24.00;78.00;;;;;;4968808;28;20043;-55
2023/05/29 10:51:50;;;;;;;6.32;2.97;;;24.00;77.50;;;;;;4966968;28;20026;-53
2023/05/29 10:54:18;;;;;;;4.03;2.70;;;23.90;79.40;;;;;;4971234;28;20097;-57
2023/05/29 10:56:52;;;;;;;7.38;2.78;;;23.70;77.80;;;;;;4971602;28;20089;-54
2023/05/29 10:59:18;;;;;;;10.73;3.03;;;23.70;78.50;;;;;;4972134;28;20446;-53
2023/05/29 11:01:44;;;;;;;6.25;3.47;;;23.90;79.40;;;;;;4971455;28;20113;-58
2023/05/29 11:04:15;;;;;;;3.83;2.90;;;23.80;77.20;;;;;;4972484;28;20134;-56
2023/05/29 11:06:41;;;;;;;8.60;3.03;;;24.00;77.50;;;;;;4972810;28;20554;-53
2023/05/29 11:09:27;;;;;;;3.60;2.65;;;24.00;77.50;;;;;;4972961;28;20042;-57
2023/05/29 11:12:35;;;;;;;5.88;2.90;;;24.00;75.30;;;;;;4972081;28;20557;-58
2023/05/29 11:15:09;;;;;;;8.75;2.95;;;24.10;71.20;;;;;;4967677;28;20037;-48
2023/05/29 11:17:38;;;;;;;6.95;3.28;;;24.10;73.80;;;;;;4972562;28;20113;-47
2023/05/29 11:20:06;;;;;;;7.57;3.03;;;24.10;72.20;;;;;;4972458;28;20031;-52
2023/05/29 11:22:48;;;;;;;8.40;5.32;;;24.10;73.10;;;;;;4972834;28;20398;-53
2023/05/29 11:25:15;;;;;;;4.20;3.70;;;24.00;73.30;;;;;;4973215;28;20110;-54
2023/05/29 11:27:41;;;;;;;4.82;3.65;;;23.90;72.70;;;;;;4969561;28;20467;-53
2023/05/29 11:30:07;;;;;;;4.68;2.50;;;24.00;73.30;;;;;;4972531;28;20501;-54
2023/05/29 11:32:36;;;;;;;6.50;2.97;;;24.00;71.30;;;;;;4971516;28;20660;-50
2023/05/29 11:35:10;;;;;;;5.05;2.78;;;24.00;72.30;;;;;;4972531;28;20046;-53
2023/05/29 11:37:37;;;;;;;5.07;3.03;;;24.00;73.50;;;;;;4971511;28;20027;-50
2023/05/29 11:40:05;;;;;;;8.48;3.50;;;24.00;72.10;;;;;;4972076;28;20442;-54
2023/05/29 11:42:31;;;;;;;3.95;2.88;;;24.10;73.30;;;;;;4969601;28;20368;-56
2023/05/29 11:45:20;;;;;;;7.28;3.47;;;24.00;74.50;;;;;;4972592;28;20106;-55
2023/05/29 11:47:51;;;;;;;4.75;2.80;;;24.10;73.00;;;;;;4965562;28;20114;-56
2023/05/29 11:50:27;;;;;;;5.35;3.05;;;24.10;73.00;;;;;;4971889;28;20022;-52
2023/05/29 11:52:53;;;;;;;9.50;3.00;;;24.10;71.40;;;;;;4972228;28;20161;-52
2023/05/29 11:55:20;;;;;;;7.03;3.15;;;24.00;73.70;;;;;;4971208;28;20189;-54
2023/05/29 11:57:47;;;;;;;5.97;2.85;;;24.10;75.10;;;;;;4972785;28;20038;-56
2023/05/29 12:00:17;;;;;;;4.93;3.22;;;24.20;75.70;;;;;;4971029;28;20030;-52
2023/05/29 12:02:43;;;;;;;4.43;3.15;;;24.20;76.00;;;;;;4972892;28;20093;-55
2023/05/29 12:05:10;;;;;;;5.97;3.00;;;24.10;76.30;;;;;;4972383;28;20471;-54
2023/05/29 12:07:36;;;;;;;5.38;2.95;;;24.10;77.20;;;;;;4972274;28;20022;-52
2023/05/29 12:10:14;;;;;;;3.83;3.40;;;24.20;77.80;;;;;;4987190;23;20018;-53
2023/05/29 12:12:40;;;;;;;6.63;2.90;;;24.30;76.70;;;;;;4979980;28;20018;-54
2023/05/29 12:15:08;;;;;;;5.15;2.70;;;24.20;77.30;;;;;;4975725;28;20053;-52
2023/05/29 12:17:36;;;;;;;4.50;2.88;;;24.10;77.00;;;;;;4978360;28;20027;-55
2023/05/29 12:20:04;;;;;;;4.38;2.85;;;24.00;77.10;;;;;;4987159;28;20035;-49
2023/05/29 12:22:35;;;;;;;16.75;11.98;;;24.00;76.70;;;;;;4963012;28;20023;-53
2023/05/29 12:25:18;;;;;;;9.70;5.07;;;23.90;78.20;;;;;;4987999;28;20098;-56
2023/05/29 12:27:46;;;;;;;17.33;10.55;;;24.10;79.00;;;;;;4975648;28;20019;-50
2023/05/29 12:30:16;;;;;;;8.43;3.38;;;24.10;77.40;;;;;;4975094;28;20030;-54
2023/05/29 12:32:46;;;;;;;7.25;3.13;;;24.20;76.50;;;;;;4975166;28;20041;-50
2023/05/29 12:35:28;;;;;;;4.15;2.90;;;24.20;76.50;;;;;;4967935;28;20085;-51
2023/05/29 12:38:05;;;;;;;9.77;5.22;;;24.30;78.40;;;;;;4968093;28;20031;-50
2023/05/29 12:40:33;;;;;;;6.88;2.95;;;24.30;77.10;;;;;;4974954;28;20034;-56
2023/05/29 12:43:01;;;;;;;4.57;3.00;;;24.40;75.90;;;;;;4975164;28;20042;-54
2023/05/29 12:45:29;;;;;;;4.35;2.78;;;24.50;76.00;;;;;;4975152;28;20453;-52
2023/05/29 12:47:56;;;;;;;4.55;3.30;;;24.50;77.20;;;;;;4975309;28;20035;-50
2023/05/29 12:50:27;;;;;;;7.10;2.97;;;24.50;75.50;;;;;;4967088;28;20023;-52